sensor_id;sensor_type;location;lat;lon;timestamp;P1;durP1;ratioP1;P2;durP2;ratioP2
35993;SDS011;22066;54.274;18.578;2023-02-11T08:28:38;6.77;;;2.20;;
35993;SDS011;22066;54.274;18.578;2023-02-11T08:31:26;4.27;;;1.73;;
35993;SDS011;22066;54.274;18.578;2023-02-11T08:33:50;4.10;;;1.40;;
35993;SDS011;22066;54.274;18.578;2023-02-11T08:36:21;3.90;;;1.83;;
35993;SDS011;22066;54.274;18.578;2023-02-11T08:38:47;3.80;;;1.37;;
35993;SDS011;22066;54.274;18.578;2023-02-11T08:41:14;5.33;;;1.73;;
35993;SDS011;22066;54.274;18.578;2023-02-11T08:43:41;2.37;;;1.03;;
35993;SDS011;22066;54.274;18.578;2023-02-11T08:46:08;5.13;;;2.30;;
35993;SDS011;22066;54.274;18.578;2023-02-11T08:48:34;6.80;;;2.87;;
35993;SDS011;22066;54.274;18.578;2023-02-11T08:51:04;6.83;;;2.50;;
35993;SDS011;22066;54.274;18.578;2023-02-11T08:53:30;5.10;;;1.70;;
35993;SDS011;22066;54.274;18.578;2023-02-11T08:55:56;4.33;;;1.80;;
35993;SDS011;22066;54.274;18.578;2023-02-11T08:58:22;5.53;;;2.27;;
35993;SDS011;22066;54.274;18.578;2023-02-11T09:00:48;6.07;;;2.00;;
35993;SDS011;22066;54.274;18.578;2023-02-11T09:03:14;6.70;;;2.27;;
35993;SDS011;22066;54.274;18.578;2023-02-11T09:05:43;6.43;;;2.30;;
35993;SDS011;22066;54.274;18.578;2023-02-11T09:08:10;5.40;;;1.73;;
35993;SDS011;22066;54.274;18.578;2023-02-11T09:10:36;4.03;;;1.57;;
35993;SDS011;22066;54.274;18.578;2023-02-11T09:13:02;3.53;;;1.70;;
35993;SDS011;22066;54.274;18.578;2023-02-11T09:15:28;3.93;;;1.87;;
35993;SDS011;22066;54.274;18.578;2023-02-11T09:17:55;5.23;;;2.20;;
35993;SDS011;22066;54.274;18.578;2023-02-11T09:20:21;4.30;;;1.97;;
35993;SDS011;22066;54.274;18.578;2023-02-11T09:22:47;5.17;;;1.87;;
35993;SDS011;22066;54.274;18.578;2023-02-11T09:25:13;4.00;;;1.50;;
35993;SDS011;22066;54.274;18.578;2023-02-11T09:27:39;3.57;;;1.40;;
35993;SDS011;22066;54.274;18.578;2023-02-11T09:30:06;4.47;;;1.73;;
35993;SDS011;22066;54.274;18.578;2023-02-11T09:32:32;5.80;;;2.47;;
35993;SDS011;22066;54.274;18.578;2023-02-11T09:34:58;5.87;;;2.00;;
35993;SDS011;22066;54.274;18.578;2023-02-11T09:37:24;5.07;;;1.50;;
35993;SDS011;22066;54.274;18.578;2023-02-11T09:39:51;3.57;;;1.67;;
35993;SDS011;22066;54.274;18.578;2023-02-11T09:44:49;5.10;;;1.93;;
35993;SDS011;22066;54.274;18.578;2023-02-11T09:47:32;4.27;;;1.43;;
35993;SDS011;22066;54.274;18.578;2023-02-11T09:50:00;3.87;;;1.13;;
35993;SDS011;22066;54.274;18.578;2023-02-11T09:55:54;3.97;;;1.40;;
35993;SDS011;22066;54.274;18.578;2023-02-11T09:57:55;4.90;;;1.47;;
35993;SDS011;22066;54.274;18.578;2023-02-11T10:00:30;5.70;;;2.13;;
35993;SDS011;22066;54.274;18.578;2023-02-11T10:13:07;6.38;;;1.92;;
35993;SDS011;22066;54.274;18.578;2023-02-11T10:15:51;4.78;;;1.40;;
35993;SDS011;22066;54.274;18.578;2023-02-11T10:21:00;3.70;;;1.35;;
35993;SDS011;22066;54.274;18.578;2023-02-11T10:23:30;2.85;;;1.23;;
35993;SDS011;22066;54.274;18.578;2023-02-11T10:25:58;4.93;;;1.30;;
35993;SDS011;22066;54.274;18.578;2023-02-11T10:28:33;2.85;;;1.20;;
35993;SDS011;22066;54.274;18.578;2023-02-11T10:36:08;6.60;;;2.00;;
35993;SDS011;22066;54.274;18.578;2023-02-11T10:38:35;4.43;;;1.75;;
35993;SDS011;22066;54.274;18.578;2023-02-11T10:41:01;6.43;;;1.73;;
35993;SDS011;22066;54.274;18.578;2023-02-11T10:43:27;3.85;;;1.25;;
35993;SDS011;22066;54.274;18.578;2023-02-11T10:45:55;6.50;;;2.38;;
35993;SDS011;22066;54.274;18.578;2023-02-11T10:53:35;10.05;;;2.95;;
35993;SDS011;22066;54.274;18.578;2023-02-11T10:56:01;4.85;;;1.88;;
35993;SDS011;22066;54.274;18.578;2023-02-11T10:58:29;11.48;;;3.35;;
35993;SDS011;22066;54.274;18.578;2023-02-11T11:00:57;11.10;;;3.15;;
35993;SDS011;22066;54.274;18.578;2023-02-11T11:03:25;8.00;;;2.27;;
35993;SDS011;22066;54.274;18.578;2023-02-11T11:05:55;8.55;;;2.25;;
35993;SDS011;22066;54.274;18.578;2023-02-11T11:08:21;12.57;;;2.80;;
35993;SDS011;22066;54.274;18.578;2023-02-11T11:11:21;10.30;;;2.45;;
35993;SDS011;22066;54.274;18.578;2023-02-11T11:13:41;8.02;;;2.58;;
35993;SDS011;22066;54.274;18.578;2023-02-11T11:16:21;6.25;;;2.28;;
35993;SDS011;22066;54.274;18.578;2023-02-11T11:18:48;5.88;;;2.00;;
35993;SDS011;22066;54.274;18.578;2023-02-11T11:23:45;9.38;;;2.55;;
35993;SDS011;22066;54.274;18.578;2023-02-11T11:26:12;7.80;;;2.60;;
35993;SDS011;22066;54.274;18.578;2023-02-11T11:28:49;6.00;;;2.30;;
35993;SDS011;22066;54.274;18.578;2023-02-11T11:31:16;5.38;;;2.28;;
35993;SDS011;22066;54.274;18.578;2023-02-11T11:33:43;5.43;;;1.70;;
35993;SDS011;22066;54.274;18.578;2023-02-11T11:36:12;6.82;;;1.70;;
35993;SDS011;22066;54.274;18.578;2023-02-11T11:38:42;7.57;;;2.22;;
35993;SDS011;22066;54.274;18.578;2023-02-11T11:41:16;10.77;;;2.42;;
35993;SDS011;22066;54.274;18.578;2023-02-11T11:43:59;10.85;;;2.47;;
35993;SDS011;22066;54.274;18.578;2023-02-11T11:46:32;6.13;;;1.88;;
35993;SDS011;22066;54.274;18.578;2023-02-11T11:49:42;5.60;;;1.70;;
35993;SDS011;22066;54.274;18.578;2023-02-11T11:51:50;8.50;;;2.25;;
35993;SDS011;22066;54.274;18.578;2023-02-11T11:54:19;8.88;;;2.42;;
35993;SDS011;22066;54.274;18.578;2023-02-11T11:56:52;5.20;;;1.80;;
35993;SDS011;22066;54.274;18.578;2023-02-11T11:59:19;16.95;;;2.63;;
35993;SDS011;22066;54.274;18.578;2023-02-11T12:07:16;7.65;;;2.22;;
35993;SDS011;22066;54.274;18.578;2023-02-11T12:22:05;8.48;;;2.55;;
35993;SDS011;22066;54.274;18.578;2023-02-11T12:24:38;13.90;;;2.92;;
35993;SDS011;22066;54.274;18.578;2023-02-11T12:27:21;18.30;;;3.00;;
35993;SDS011;22066;54.274;18.578;2023-02-11T12:32:48;15.63;;;3.95;;
35993;SDS011;22066;54.274;18.578;2023-02-11T12:38:17;11.43;;;2.40;;
35993;SDS011;22066;54.274;18.578;2023-02-11T12:40:45;14.32;;;2.80;;
35993;SDS011;22066;54.274;18.578;2023-02-11T12:48:20;17.92;;;3.65;;
35993;SDS011;22066;54.274;18.578;2023-02-11T12:53:19;13.30;;;2.63;;
35993;SDS011;22066;54.274;18.578;2023-02-11T12:55:50;12.68;;;1.90;;
35993;SDS011;22066;54.274;18.578;2023-02-11T12:58:20;15.75;;;3.08;;
35993;SDS011;22066;54.274;18.578;2023-02-11T13:03:24;15.20;;;2.67;;
35993;SDS011;22066;54.274;18.578;2023-02-11T13:05:57;14.32;;;3.63;;
35993;SDS011;22066;54.274;18.578;2023-02-11T13:10:54;12.13;;;2.33;;
35993;SDS011;22066;54.274;18.578;2023-02-11T13:15:59;14.40;;;2.92;;
35993;SDS011;22066;54.274;18.578;2023-02-11T13:18:44;18.90;;;4.00;;
35993;SDS011;22066;54.274;18.578;2023-02-11T13:23:54;9.95;;;3.08;;
35993;SDS011;22066;54.274;18.578;2023-02-11T13:28:53;13.63;;;2.97;;
35993;SDS011;22066;54.274;18.578;2023-02-11T13:31:21;12.85;;;2.97;;
35993;SDS011;22066;54.274;18.578;2023-02-11T13:33:51;12.05;;;2.50;;
35993;SDS011;22066;54.274;18.578;2023-02-11T13:36:18;15.63;;;3.15;;
35993;SDS011;22066;54.274;18.578;2023-02-11T13:38:52;12.83;;;3.13;;
35993;SDS011;22066;54.274;18.578;2023-02-11T13:41:32;22.38;;;3.08;;
35993;SDS011;22066;54.274;18.578;2023-02-11T13:49:20;24.50;;;4.50;;
35993;SDS011;22066;54.274;18.578;2023-02-11T13:51:47;13.07;;;3.10;;
35993;SDS011;22066;54.274;18.578;2023-02-11T13:54:21;14.80;;;3.38;;
35993;SDS011;22066;54.274;18.578;2023-02-11T13:57:14;23.13;;;4.75;;
35993;SDS011;22066;54.274;18.578;2023-02-11T14:02:19;14.80;;;3.60;;
35993;SDS011;22066;54.274;18.578;2023-02-11T14:13:30;15.65;;;3.08;;
35993;SDS011;22066;54.274;18.578;2023-02-11T14:16:07;15.35;;;3.40;;
35993;SDS011;22066;54.274;18.578;2023-02-11T14:23:45;13.13;;;3.78;;
35993;SDS011;22066;54.274;18.578;2023-02-11T14:28:47;14.25;;;4.30;;
35993;SDS011;22066;54.274;18.578;2023-02-11T14:31:20;10.93;;;3.03;;
35993;SDS011;22066;54.274;18.578;2023-02-11T14:34:11;16.77;;;3.80;;
35993;SDS011;22066;54.274;18.578;2023-02-11T14:36:46;14.98;;;4.35;;
35993;SDS011;22066;54.274;18.578;2023-02-11T14:41:42;16.45;;;3.55;;
35993;SDS011;22066;54.274;18.578;2023-02-11T14:44:14;18.90;;;3.40;;
35993;SDS011;22066;54.274;18.578;2023-02-11T14:46:45;19.88;;;2.85;;
35993;SDS011;22066;54.274;18.578;2023-02-11T14:49:28;20.50;;;3.65;;
35993;SDS011;22066;54.274;18.578;2023-02-11T14:51:57;15.88;;;2.80;;
35993;SDS011;22066;54.274;18.578;2023-02-11T14:54:25;14.88;;;3.53;;
35993;SDS011;22066;54.274;18.578;2023-02-11T14:57:05;18.55;;;3.58;;
35993;SDS011;22066;54.274;18.578;2023-02-11T14:59:32;10.57;;;3.22;;
35993;SDS011;22066;54.274;18.578;2023-02-11T15:02:00;18.17;;;2.88;;
35993;SDS011;22066;54.274;18.578;2023-02-11T15:04:28;15.40;;;2.78;;
35993;SDS011;22066;54.274;18.578;2023-02-11T15:06:54;12.88;;;2.60;;
35993;SDS011;22066;54.274;18.578;2023-02-11T15:09:39;9.95;;;2.47;;
35993;SDS011;22066;54.274;18.578;2023-02-11T15:12:10;16.10;;;2.88;;
35993;SDS011;22066;54.274;18.578;2023-02-11T15:14:43;17.25;;;3.70;;
35993;SDS011;22066;54.274;18.578;2023-02-11T15:17:11;13.10;;;3.53;;
35993;SDS011;22066;54.274;18.578;2023-02-11T15:19:40;16.02;;;3.42;;
35993;SDS011;22066;54.274;18.578;2023-02-11T15:22:13;12.27;;;2.90;;
35993;SDS011;22066;54.274;18.578;2023-02-11T15:24:42;16.67;;;3.55;;
35993;SDS011;22066;54.274;18.578;2023-02-11T15:29:46;22.55;;;3.60;;
35993;SDS011;22066;54.274;18.578;2023-02-11T15:32:16;15.00;;;4.00;;
35993;SDS011;22066;54.274;18.578;2023-02-11T15:34:43;12.77;;;2.90;;
35993;SDS011;22066;54.274;18.578;2023-02-11T15:37:22;15.35;;;3.17;;
35993;SDS011;22066;54.274;18.578;2023-02-11T15:39:52;12.40;;;3.45;;
35993;SDS011;22066;54.274;18.578;2023-02-11T15:42:26;15.30;;;3.10;;
35993;SDS011;22066;54.274;18.578;2023-02-11T15:50:29;13.20;;;3.08;;
35993;SDS011;22066;54.274;18.578;2023-02-11T15:52:56;11.75;;;4.10;;
35993;SDS011;22066;54.274;18.578;2023-02-11T15:55:25;8.82;;;2.70;;
35993;SDS011;22066;54.274;18.578;2023-02-11T15:58:05;14.43;;;3.95;;
35993;SDS011;22066;54.274;18.578;2023-02-11T16:00:34;12.63;;;3.67;;
35993;SDS011;22066;54.274;18.578;2023-02-11T16:03:01;10.40;;;3.88;;
35993;SDS011;22066;54.274;18.578;2023-02-11T16:05:46;7.82;;;3.55;;
35993;SDS011;22066;54.274;18.578;2023-02-11T16:08:22;11.20;;;4.60;;
35993;SDS011;22066;54.274;18.578;2023-02-11T16:11:00;14.35;;;4.13;;
35993;SDS011;22066;54.274;18.578;2023-02-11T16:13:28;14.05;;;3.28;;
35993;SDS011;22066;54.274;18.578;2023-02-11T16:16:04;13.00;;;4.70;;
35993;SDS011;22066;54.274;18.578;2023-02-11T16:18:43;12.90;;;3.42;;
35993;SDS011;22066;54.274;18.578;2023-02-11T16:21:11;12.45;;;4.07;;
35993;SDS011;22066;54.274;18.578;2023-02-11T16:23:40;21.27;;;3.90;;
35993;SDS011;22066;54.274;18.578;2023-02-11T16:26:09;18.67;;;3.92;;
35993;SDS011;22066;54.274;18.578;2023-02-11T16:28:36;15.75;;;5.15;;
35993;SDS011;22066;54.274;18.578;2023-02-11T16:31:02;9.88;;;3.55;;
35993;SDS011;22066;54.274;18.578;2023-02-11T16:33:29;11.65;;;3.70;;
35993;SDS011;22066;54.274;18.578;2023-02-11T16:35:55;14.82;;;4.55;;
35993;SDS011;22066;54.274;18.578;2023-02-11T16:38:21;17.80;;;5.33;;
35993;SDS011;22066;54.274;18.578;2023-02-11T16:40:47;20.43;;;5.93;;
35993;SDS011;22066;54.274;18.578;2023-02-11T16:43:16;18.30;;;4.13;;
35993;SDS011;22066;54.274;18.578;2023-02-11T16:45:43;17.75;;;4.15;;
35993;SDS011;22066;54.274;18.578;2023-02-11T16:48:11;13.18;;;4.13;;
35993;SDS011;22066;54.274;18.578;2023-02-11T16:50:38;8.83;;;2.70;;
35993;SDS011;22066;54.274;18.578;2023-02-11T16:53:08;11.20;;;2.37;;
35993;SDS011;22066;54.274;18.578;2023-02-11T16:55:35;11.80;;;2.63;;
35993;SDS011;22066;54.274;18.578;2023-02-11T16:58:01;16.33;;;2.97;;
35993;SDS011;22066;54.274;18.578;2023-02-11T17:00:27;9.53;;;2.83;;
35993;SDS011;22066;54.274;18.578;2023-02-11T17:02:53;9.07;;;2.50;;
35993;SDS011;22066;54.274;18.578;2023-02-11T17:05:20;6.27;;;1.53;;
35993;SDS011;22066;54.274;18.578;2023-02-11T17:07:48;8.93;;;2.03;;
35993;SDS011;22066;54.274;18.578;2023-02-11T17:10:15;10.73;;;2.27;;
35993;SDS011;22066;54.274;18.578;2023-02-11T17:12:41;4.90;;;1.30;;
35993;SDS011;22066;54.274;18.578;2023-02-11T17:15:08;5.80;;;1.27;;
35993;SDS011;22066;54.274;18.578;2023-02-11T17:17:34;11.03;;;1.73;;
35993;SDS011;22066;54.274;18.578;2023-02-11T17:20:00;6.37;;;1.90;;
35993;SDS011;22066;54.274;18.578;2023-02-11T17:22:26;6.93;;;1.57;;
35993;SDS011;22066;54.274;18.578;2023-02-11T17:24:52;15.90;;;4.23;;
35993;SDS011;22066;54.274;18.578;2023-02-11T17:27:21;9.57;;;2.38;;
35993;SDS011;22066;54.274;18.578;2023-02-11T17:29:47;9.03;;;2.40;;
35993;SDS011;22066;54.274;18.578;2023-02-11T17:32:13;8.50;;;3.40;;
35993;SDS011;22066;54.274;18.578;2023-02-11T17:34:39;17.23;;;7.47;;
35993;SDS011;22066;54.274;18.578;2023-02-11T17:37:05;12.43;;;5.00;;
35993;SDS011;22066;54.274;18.578;2023-02-11T17:39:36;12.73;;;4.13;;
35993;SDS011;22066;54.274;18.578;2023-02-11T17:42:02;5.97;;;2.87;;
35993;SDS011;22066;54.274;18.578;2023-02-11T17:44:30;9.10;;;2.97;;
35993;SDS011;22066;54.274;18.578;2023-02-11T17:46:56;9.10;;;3.53;;
35993;SDS011;22066;54.274;18.578;2023-02-11T17:49:22;6.80;;;3.33;;
35993;SDS011;22066;54.274;18.578;2023-02-11T17:51:48;5.40;;;2.63;;
35993;SDS011;22066;54.274;18.578;2023-02-11T17:54:15;7.83;;;3.27;;
35993;SDS011;22066;54.274;18.578;2023-02-11T17:56:42;8.40;;;2.40;;
35993;SDS011;22066;54.274;18.578;2023-02-11T17:59:12;4.63;;;1.27;;
35993;SDS011;22066;54.274;18.578;2023-02-11T18:01:39;4.93;;;1.73;;
35993;SDS011;22066;54.274;18.578;2023-02-11T18:04:05;3.67;;;1.00;;
35993;SDS011;22066;54.274;18.578;2023-02-11T18:06:35;3.87;;;1.30;;
35993;SDS011;22066;54.274;18.578;2023-02-11T18:09:01;4.37;;;1.10;;
35993;SDS011;22066;54.274;18.578;2023-02-11T18:11:29;4.70;;;1.80;;
35993;SDS011;22066;54.274;18.578;2023-02-11T18:13:59;5.53;;;1.75;;
35993;SDS011;22066;54.274;18.578;2023-02-11T18:16:25;3.20;;;1.60;;
35993;SDS011;22066;54.274;18.578;2023-02-11T18:18:53;3.37;;;1.03;;
35993;SDS011;22066;54.274;18.578;2023-02-11T18:21:23;4.27;;;1.50;;
35993;SDS011;22066;54.274;18.578;2023-02-11T18:23:50;3.37;;;1.40;;
35993;SDS011;22066;54.274;18.578;2023-02-11T18:26:18;4.50;;;1.40;;
35993;SDS011;22066;54.274;18.578;2023-02-11T18:28:45;4.73;;;1.70;;
35993;SDS011;22066;54.274;18.578;2023-02-11T18:31:11;3.93;;;1.00;;
35993;SDS011;22066;54.274;18.578;2023-02-11T18:33:38;4.60;;;1.20;;
35993;SDS011;22066;54.274;18.578;2023-02-11T18:36:05;5.50;;;1.23;;
35993;SDS011;22066;54.274;18.578;2023-02-11T18:38:31;4.47;;;1.13;;
35993;SDS011;22066;54.274;18.578;2023-02-11T18:40:58;5.53;;;1.70;;
35993;SDS011;22066;54.274;18.578;2023-02-11T18:43:24;9.80;;;1.57;;
35993;SDS011;22066;54.274;18.578;2023-02-11T18:45:50;5.97;;;1.90;;
35993;SDS011;22066;54.274;18.578;2023-02-11T18:48:16;3.67;;;1.43;;
35993;SDS011;22066;54.274;18.578;2023-02-11T18:50:43;5.33;;;1.80;;
35993;SDS011;22066;54.274;18.578;2023-02-11T18:53:10;3.40;;;1.40;;
35993;SDS011;22066;54.274;18.578;2023-02-11T18:55:37;4.77;;;1.23;;
35993;SDS011;22066;54.274;18.578;2023-02-11T18:58:04;5.00;;;1.70;;
35993;SDS011;22066;54.274;18.578;2023-02-11T19:00:30;7.87;;;3.47;;
35993;SDS011;22066;54.274;18.578;2023-02-11T19:02:56;6.90;;;3.17;;
35993;SDS011;22066;54.274;18.578;2023-02-11T19:05:22;4.10;;;1.60;;
35993;SDS011;22066;54.274;18.578;2023-02-11T19:07:52;4.33;;;1.80;;
35993;SDS011;22066;54.274;18.578;2023-02-11T19:10:18;5.07;;;1.77;;
35993;SDS011;22066;54.274;18.578;2023-02-11T19:12:44;7.03;;;2.00;;
35993;SDS011;22066;54.274;18.578;2023-02-11T19:15:10;3.87;;;1.63;;
35993;SDS011;22066;54.274;18.578;2023-02-11T19:17:38;3.73;;;1.60;;
35993;SDS011;22066;54.274;18.578;2023-02-11T19:20:04;3.30;;;1.40;;
35993;SDS011;22066;54.274;18.578;2023-02-11T19:22:30;6.47;;;2.17;;
35993;SDS011;22066;54.274;18.578;2023-02-11T19:25:00;3.93;;;2.17;;
35993;SDS011;22066;54.274;18.578;2023-02-11T19:27:26;5.70;;;2.00;;
35993;SDS011;22066;54.274;18.578;2023-02-11T19:29:52;3.00;;;1.43;;
35993;SDS011;22066;54.274;18.578;2023-02-11T19:32:18;4.00;;;1.50;;
35993;SDS011;22066;54.274;18.578;2023-02-11T19:34:44;7.20;;;1.50;;
35993;SDS011;22066;54.274;18.578;2023-02-11T19:37:10;2.83;;;1.23;;
35993;SDS011;22066;54.274;18.578;2023-02-11T19:39:41;4.80;;;1.30;;
35993;SDS011;22066;54.274;18.578;2023-02-11T19:42:07;2.53;;;1.00;;
35993;SDS011;22066;54.274;18.578;2023-02-11T19:44:33;5.53;;;1.60;;
35993;SDS011;22066;54.274;18.578;2023-02-11T19:47:13;4.87;;;1.33;;
35993;SDS011;22066;54.274;18.578;2023-02-11T19:49:42;2.63;;;0.93;;
35993;SDS011;22066;54.274;18.578;2023-02-11T19:52:08;4.43;;;1.17;;
35993;SDS011;22066;54.274;18.578;2023-02-11T19:54:34;4.93;;;1.20;;
35993;SDS011;22066;54.274;18.578;2023-02-11T19:57:02;4.15;;;1.30;;
35993;SDS011;22066;54.274;18.578;2023-02-11T19:59:28;3.27;;;1.27;;
35993;SDS011;22066;54.274;18.578;2023-02-11T20:01:54;2.87;;;1.90;;
35993;SDS011;22066;54.274;18.578;2023-02-11T20:04:21;3.43;;;1.50;;
35993;SDS011;22066;54.274;18.578;2023-02-11T20:06:49;3.47;;;1.03;;
35993;SDS011;22066;54.274;18.578;2023-02-11T20:09:15;5.00;;;1.40;;
35993;SDS011;22066;54.274;18.578;2023-02-11T20:11:41;5.27;;;1.53;;
35993;SDS011;22066;54.274;18.578;2023-02-11T20:14:10;2.30;;;0.70;;
35993;SDS011;22066;54.274;18.578;2023-02-11T20:19:03;2.60;;;1.00;;
35993;SDS011;22066;54.274;18.578;2023-02-11T20:21:30;3.67;;;1.43;;
35993;SDS011;22066;54.274;18.578;2023-02-11T20:23:56;4.10;;;1.30;;
35993;SDS011;22066;54.274;18.578;2023-02-11T20:26:29;2.67;;;1.10;;
35993;SDS011;22066;54.274;18.578;2023-02-11T20:28:56;4.00;;;1.30;;
35993;SDS011;22066;54.274;18.578;2023-02-11T20:31:26;4.87;;;1.10;;
35993;SDS011;22066;54.274;18.578;2023-02-11T20:33:52;5.57;;;1.27;;
35993;SDS011;22066;54.274;18.578;2023-02-11T20:36:24;5.88;;;1.40;;
35993;SDS011;22066;54.274;18.578;2023-02-11T20:38:50;6.43;;;1.20;;
35993;SDS011;22066;54.274;18.578;2023-02-11T20:41:22;4.18;;;0.88;;
35993;SDS011;22066;54.274;18.578;2023-02-11T20:43:50;8.63;;;3.60;;
35993;SDS011;22066;54.274;18.578;2023-02-11T20:46:18;14.18;;;2.08;;
35993;SDS011;22066;54.274;18.578;2023-02-11T20:48:44;6.40;;;1.87;;
35993;SDS011;22066;54.274;18.578;2023-02-11T20:51:11;13.63;;;4.03;;
35993;SDS011;22066;54.274;18.578;2023-02-11T20:53:38;4.20;;;1.83;;
35993;SDS011;22066;54.274;18.578;2023-02-11T20:56:05;3.37;;;1.37;;
35993;SDS011;22066;54.274;18.578;2023-02-11T20:58:32;4.63;;;1.00;;
35993;SDS011;22066;54.274;18.578;2023-02-11T21:01:11;2.03;;;0.80;;
35993;SDS011;22066;54.274;18.578;2023-02-11T21:03:48;3.40;;;0.80;;
35993;SDS011;22066;54.274;18.578;2023-02-11T21:06:14;2.20;;;0.97;;
35993;SDS011;22066;54.274;18.578;2023-02-11T21:08:41;6.37;;;1.57;;
35993;SDS011;22066;54.274;18.578;2023-02-11T21:11:07;5.40;;;2.30;;
35993;SDS011;22066;54.274;18.578;2023-02-11T21:13:36;7.50;;;2.30;;
35993;SDS011;22066;54.274;18.578;2023-02-11T21:16:02;4.77;;;1.50;;
35993;SDS011;22066;54.274;18.578;2023-02-11T21:18:29;5.07;;;1.77;;
35993;SDS011;22066;54.274;18.578;2023-02-11T21:20:55;4.50;;;1.20;;
35993;SDS011;22066;54.274;18.578;2023-02-11T21:23:21;7.57;;;1.03;;
35993;SDS011;22066;54.274;18.578;2023-02-11T21:25:49;2.87;;;0.83;;
35993;SDS011;22066;54.274;18.578;2023-02-11T21:28:15;3.80;;;1.07;;
35993;SDS011;22066;54.274;18.578;2023-02-11T21:30:41;2.07;;;1.00;;
35993;SDS011;22066;54.274;18.578;2023-02-11T21:33:07;3.37;;;1.07;;
35993;SDS011;22066;54.274;18.578;2023-02-11T21:35:34;1.37;;;0.80;;
35993;SDS011;22066;54.274;18.578;2023-02-11T21:38:00;2.87;;;1.30;;
35993;SDS011;22066;54.274;18.578;2023-02-11T21:40:27;3.20;;;0.70;;
35993;SDS011;22066;54.274;18.578;2023-02-11T21:42:54;1.50;;;0.60;;
35993;SDS011;22066;54.274;18.578;2023-02-11T21:45:20;5.17;;;1.00;;
35993;SDS011;22066;54.274;18.578;2023-02-11T21:47:46;1.73;;;0.77;;
35993;SDS011;22066;54.274;18.578;2023-02-11T21:50:13;2.70;;;0.80;;
35993;SDS011;22066;54.274;18.578;2023-02-11T21:52:39;3.13;;;0.83;;
35993;SDS011;22066;54.274;18.578;2023-02-11T21:55:05;3.40;;;0.63;;
35993;SDS011;22066;54.274;18.578;2023-02-11T21:57:31;1.43;;;0.77;;
35993;SDS011;22066;54.274;18.578;2023-02-11T21:59:57;2.20;;;0.70;;
35993;SDS011;22066;54.274;18.578;2023-02-11T22:02:23;1.33;;;0.70;;
35993;SDS011;22066;54.274;18.578;2023-02-11T22:04:49;2.07;;;0.90;;
35993;SDS011;22066;54.274;18.578;2023-02-11T22:07:15;2.40;;;0.70;;
35993;SDS011;22066;54.274;18.578;2023-02-11T22:09:42;2.13;;;0.90;;
35993;SDS011;22066;54.274;18.578;2023-02-11T22:12:08;0.60;;;0.40;;
35993;SDS011;22066;54.274;18.578;2023-02-11T22:14:34;1.73;;;0.40;;
35993;SDS011;22066;54.274;18.578;2023-02-11T22:17:01;4.93;;;0.80;;
35993;SDS011;22066;54.274;18.578;2023-02-11T22:19:27;0.87;;;0.60;;
35993;SDS011;22066;54.274;18.578;2023-02-11T22:21:53;2.73;;;1.00;;
35993;SDS011;22066;54.274;18.578;2023-02-11T22:24:19;1.47;;;0.67;;
35993;SDS011;22066;54.274;18.578;2023-02-11T22:26:45;7.33;;;2.20;;
35993;SDS011;22066;54.274;18.578;2023-02-11T22:29:11;6.47;;;1.60;;
35993;SDS011;22066;54.274;18.578;2023-02-11T22:31:37;8.33;;;1.50;;
35993;SDS011;22066;54.274;18.578;2023-02-11T22:34:03;2.73;;;0.93;;
35993;SDS011;22066;54.274;18.578;2023-02-11T22:36:34;2.40;;;0.90;;
35993;SDS011;22066;54.274;18.578;2023-02-11T22:39:02;3.10;;;0.80;;
35993;SDS011;22066;54.274;18.578;2023-02-11T22:41:28;2.60;;;0.63;;
35993;SDS011;22066;54.274;18.578;2023-02-11T22:43:54;3.67;;;0.90;;
35993;SDS011;22066;54.274;18.578;2023-02-11T22:46:20;1.87;;;0.90;;
35993;SDS011;22066;54.274;18.578;2023-02-11T22:48:46;4.97;;;1.90;;
35993;SDS011;22066;54.274;18.578;2023-02-11T22:51:17;3.73;;;1.17;;
35993;SDS011;22066;54.274;18.578;2023-02-11T22:53:47;5.53;;;1.40;;
35993;SDS011;22066;54.274;18.578;2023-02-11T22:56:13;1.80;;;0.80;;
35993;SDS011;22066;54.274;18.578;2023-02-11T22:58:39;0.50;;;0.47;;
35993;SDS011;22066;54.274;18.578;2023-02-11T23:01:05;1.87;;;0.57;;
35993;SDS011;22066;54.274;18.578;2023-02-11T23:03:31;3.00;;;1.10;;
35993;SDS011;22066;54.274;18.578;2023-02-11T23:05:58;4.67;;;1.77;;
35993;SDS011;22066;54.274;18.578;2023-02-11T23:08:24;5.33;;;1.60;;
35993;SDS011;22066;54.274;18.578;2023-02-11T23:10:50;5.00;;;1.30;;
35993;SDS011;22066;54.274;18.578;2023-02-11T23:13:17;3.27;;;0.93;;
35993;SDS011;22066;54.274;18.578;2023-02-11T23:15:43;4.30;;;1.13;;
35993;SDS011;22066;54.274;18.578;2023-02-11T23:18:10;2.77;;;0.77;;
35993;SDS011;22066;54.274;18.578;2023-02-11T23:20:37;8.37;;;1.20;;
35993;SDS011;22066;54.274;18.578;2023-02-11T23:23:04;2.85;;;0.60;;
35993;SDS011;22066;54.274;18.578;2023-02-11T23:25:30;4.37;;;0.90;;
35993;SDS011;22066;54.274;18.578;2023-02-11T23:27:56;2.67;;;0.80;;
35993;SDS011;22066;54.274;18.578;2023-02-11T23:30:23;5.50;;;0.87;;
35993;SDS011;22066;54.274;18.578;2023-02-11T23:32:49;2.17;;;0.80;;
35993;SDS011;22066;54.274;18.578;2023-02-11T23:35:15;3.17;;;0.80;;
35993;SDS011;22066;54.274;18.578;2023-02-11T23:37:48;2.93;;;0.80;;
35993;SDS011;22066;54.274;18.578;2023-02-11T23:40:14;5.22;;;1.63;;
35993;SDS011;22066;54.274;18.578;2023-02-11T23:42:41;4.23;;;1.77;;
35993;SDS011;22066;54.274;18.578;2023-02-11T23:45:07;7.53;;;1.73;;
35993;SDS011;22066;54.274;18.578;2023-02-11T23:47:33;7.33;;;1.60;;
35993;SDS011;22066;54.274;18.578;2023-02-11T23:49:59;2.43;;;1.03;;
35993;SDS011;22066;54.274;18.578;2023-02-11T23:52:26;3.40;;;1.43;;
35993;SDS011;22066;54.274;18.578;2023-02-11T23:54:52;8.20;;;2.07;;
35993;SDS011;22066;54.274;18.578;2023-02-11T23:57:18;5.80;;;2.10;;
35993;SDS011;22066;54.274;18.578;2023-02-11T23:59:47;5.07;;;1.60;;
